createdAt,value
2023-04-09T00:00:35.017Z,101672.75
2023-04-09T00:05:34.148Z,101670.84
2023-04-09T00:10:31.467Z,101668.09
2023-04-09T00:15:31.568Z,101651.47
2023-04-09T00:20:28.661Z,101678.47
2023-04-09T00:25:25.393Z,101676.00
2023-04-09T00:30:24.961Z,101671.47
2023-04-09T00:35:21.591Z,101680.16
2023-04-09T00:40:18.313Z,101684.28
2023-04-09T00:45:15.212Z,101678.00
2023-04-09T00:50:12.681Z,101656.63
2023-04-09T00:55:09.664Z,101674.44
2023-04-09T01:00:07.266Z,101672.63
2023-04-09T01:05:04.027Z,101667.97
2023-04-09T01:10:05.467Z,101672.72
2023-04-09T01:15:08.673Z,101667.56
2023-04-09T01:20:09.123Z,101644.41
2023-04-09T01:25:17.139Z,101663.13
2023-04-09T01:30:16.472Z,101669.34
2023-04-09T01:35:14.074Z,101661.06
2023-04-09T01:40:11.203Z,101662.66
2023-04-09T01:45:09.191Z,101657.13
2023-04-09T01:50:07.515Z,101654.97
2023-04-09T01:55:04.553Z,101648.13
2023-04-09T02:00:01.326Z,101658.19
2023-04-09T02:04:58.731Z,101653.38
2023-04-09T02:09:57.469Z,101659.63
2023-04-09T02:14:54.548Z,101652.13
2023-04-09T02:19:53.589Z,101652.09
2023-04-09T02:24:50.353Z,101650.16
2023-04-09T02:29:48.029Z,101647.59
2023-04-09T02:34:45.304Z,101645.94
2023-04-09T02:39:41.847Z,101650.53
2023-04-09T02:44:38.559Z,101651.38
2023-04-09T02:49:36.091Z,101658.31
2023-04-09T02:54:32.806Z,101659.81
2023-04-09T02:59:32.108Z,101661.47
2023-04-09T03:04:29.015Z,101659.47
2023-04-09T03:09:26.412Z,101669.59
2023-04-09T03:14:24.588Z,101672.88
2023-04-09T03:19:21.510Z,101673.34
2023-04-09T03:24:18.082Z,101669.25
2023-04-09T03:29:15.778Z,101675.00
2023-04-09T03:34:12.780Z,101676.72
2023-04-09T03:39:09.521Z,101682.72
2023-04-09T03:44:12.339Z,101686.91
2023-04-09T03:49:44.850Z,101700.19
2023-04-09T03:54:52.899Z,101698.78
2023-04-09T03:59:53.159Z,101702.03
2023-04-09T04:04:52.962Z,101708.88
2023-04-09T04:09:53.102Z,101709.06
2023-04-09T04:14:49.759Z,101704.25
2023-04-09T04:20:03.581Z,101703.00
2023-04-09T04:25:06.235Z,101700.13
2023-04-09T04:30:03.238Z,101704.09
2023-04-09T04:35:10.579Z,101708.16
2023-04-09T04:40:08.863Z,101710.63
2023-04-09T04:45:10.593Z,101709.47
2023-04-09T04:50:26.236Z,101716.63
2023-04-09T04:55:35.278Z,101719.66
2023-04-09T05:00:32.973Z,101714.50
2023-04-09T05:05:33.461Z,101720.00
2023-04-09T05:10:30.987Z,101712.09
2023-04-09T05:15:30.214Z,101717.84
2023-04-09T05:20:27.578Z,101708.84
2023-04-09T05:25:35.042Z,101717.09
2023-04-09T05:30:32.954Z,101724.78
2023-04-09T05:35:33.260Z,101720.13
2023-04-09T05:40:30.216Z,101725.66
2023-04-09T05:45:28.101Z,101726.69
2023-04-09T05:50:25.837Z,101728.25
2023-04-09T05:55:24.913Z,101736.88
2023-04-09T06:00:28.677Z,101739.31
2023-04-09T06:05:28.376Z,101738.25
2023-04-09T06:10:25.378Z,101737.41
2023-04-09T06:15:22.402Z,101726.56
2023-04-09T06:20:19.225Z,101729.25
2023-04-09T06:25:16.851Z,101711.44
2023-04-09T06:30:13.594Z,101736.28
2023-04-09T06:35:11.090Z,101739.19
2023-04-09T06:40:08.617Z,101742.63
2023-04-09T06:45:08.096Z,101740.88
2023-04-09T06:50:05.569Z,101734.78
2023-04-09T06:55:02.463Z,101739.19
2023-04-09T06:59:59.315Z,101735.69
2023-04-09T07:04:56.846Z,101732.72
2023-04-09T07:09:53.630Z,101734.38
2023-04-09T07:14:50.257Z,101735.19
2023-04-09T07:19:51.187Z,101737.59
2023-04-09T07:24:53.003Z,101730.47
2023-04-09T07:29:50.015Z,101726.94
2023-04-09T07:34:46.808Z,101730.13
2023-04-09T07:39:43.570Z,101744.50
2023-04-09T07:44:41.287Z,101735.19
2023-04-09T07:49:39.145Z,101737.75
2023-04-09T07:54:35.823Z,101732.94
2023-04-09T07:59:32.695Z,101731.44
2023-04-09T08:04:30.252Z,101742.66
2023-04-09T08:09:27.068Z,101744.50
2023-04-09T08:14:24.140Z,101743.50
2023-04-09T08:19:20.774Z,101752.03
2023-04-09T08:24:18.343Z,101749.84
2023-04-09T08:29:15.239Z,101742.63
2023-04-09T08:34:12.451Z,101737.41
2023-04-09T08:39:08.987Z,101737.94
2023-04-09T08:44:06.608Z,101733.56
2023-04-09T08:49:03.463Z,101739.09
2023-04-09T08:54:03.273Z,101735.41
2023-04-09T08:59:00.923Z,101720.47
2023-04-09T09:03:59.593Z,101724.25
2023-04-09T09:09:03.827Z,101724.25
2023-04-09T09:14:01.323Z,101724.97
2023-04-09T09:18:59.701Z,101698.72
2023-04-09T09:23:58.942Z,101701.19
2023-04-09T09:28:58.352Z,101711.22
2023-04-09T09:33:56.772Z,101709.63
2023-04-09T09:38:55.131Z,101707.03
2023-04-09T09:43:52.179Z,101693.09
2023-04-09T09:48:49.086Z,101698.78
2023-04-09T09:53:49.740Z,101709.25
2023-04-09T09:58:52.913Z,101693.06
2023-04-09T10:03:52.707Z,101704.03
2023-04-09T10:08:50.472Z,101690.25
2023-04-09T10:13:50.433Z,101689.47
2023-04-09T10:18:47.098Z,101680.75
2023-04-09T10:23:46.122Z,101684.69
2023-04-09T10:28:43.233Z,101695.72
2023-04-09T10:33:43.602Z,101678.53
2023-04-09T10:38:40.894Z,101674.16
2023-04-09T10:43:37.491Z,101672.47
2023-04-09T10:48:34.779Z,101672.25
2023-04-09T10:53:32.385Z,101657.06
2023-04-09T10:58:28.992Z,101654.69
2023-04-09T11:03:26.659Z,101652.91
2023-04-09T11:08:33.668Z,101648.16
2023-04-09T11:13:31.344Z,101645.69
2023-04-09T11:18:30.342Z,101638.81
2023-04-09T11:23:28.045Z,101615.72
2023-04-09T11:28:26.265Z,101622.56
2023-04-09T11:33:25.152Z,101625.69
2023-04-09T11:38:21.840Z,101627.38
2023-04-09T11:43:22.185Z,101625.28
2023-04-09T11:48:21.204Z,101618.06
2023-04-09T11:53:18.494Z,101614.38
2023-04-09T11:58:15.377Z,101601.81
2023-04-09T12:03:12.271Z,101599.81
2023-04-09T12:08:10.274Z,101599.72
2023-04-09T12:13:07.708Z,101595.78
2023-04-09T12:18:07.685Z,101579.88
2023-04-09T12:23:05.789Z,101582.81
2023-04-09T12:28:03.290Z,101564.50
2023-04-09T12:33:00.266Z,101577.84
2023-04-09T12:38:01.487Z,101565.13
2023-04-09T12:42:58.241Z,101566.97
2023-04-09T12:47:55.610Z,101564.19
2023-04-09T12:52:52.651Z,101563.34
2023-04-09T12:57:50.743Z,101552.47
2023-04-09T13:02:47.690Z,101562.31
2023-04-09T13:07:45.541Z,101551.72
2023-04-09T13:12:42.183Z,101516.03
2023-04-09T13:17:38.885Z,101545.97
2023-04-09T13:22:35.950Z,101539.88
2023-04-09T13:27:33.220Z,101547.69
2023-04-09T13:32:29.873Z,101530.91
2023-04-09T13:37:26.724Z,101534.97
2023-04-09T13:42:23.388Z,101534.38
2023-04-09T13:47:21.213Z,101525.22
2023-04-09T13:52:18.120Z,101526.28
2023-04-09T14:02:33.145Z,101517.00
2023-04-09T14:07:30.276Z,101516.25
2023-04-09T14:12:26.985Z,101523.00
2023-04-09T14:17:24.018Z,101508.84
2023-04-09T14:22:21.532Z,101498.28
2023-04-09T14:27:20.736Z,101501.78
2023-04-09T14:32:18.120Z,101505.19
2023-04-09T14:37:14.673Z,101477.72
2023-04-09T14:42:12.077Z,101501.66
2023-04-09T14:47:08.877Z,101493.31
2023-04-09T14:52:05.808Z,101490.47
2023-04-09T14:57:05.217Z,101485.00
2023-04-09T15:02:03.118Z,101488.75
2023-04-09T15:07:00.186Z,101481.06
2023-04-09T15:11:57.730Z,101483.56
2023-04-09T15:16:55.445Z,101478.84
2023-04-09T15:21:52.888Z,101483.34
2023-04-09T15:26:50.002Z,101478.75
2023-04-09T15:31:49.227Z,101469.59
2023-04-09T15:36:56.659Z,101473.06
2023-04-09T15:41:53.396Z,101458.22
2023-04-09T15:46:50.408Z,101456.19
2023-04-09T15:51:46.944Z,101450.69
2023-04-09T15:56:44.303Z,101452.56
2023-04-09T16:01:40.975Z,101459.13
2023-04-09T16:06:38.158Z,101452.06
2023-04-09T16:11:38.185Z,101454.31
2023-04-09T16:16:38.254Z,101459.31
2023-04-09T16:21:34.949Z,101452.34
2023-04-09T16:26:31.742Z,101463.47
2023-04-09T16:31:28.289Z,101452.78
2023-04-09T16:36:26.191Z,101449.72
2023-04-09T16:41:22.742Z,101453.50
2023-04-09T16:46:19.537Z,101458.59
2023-04-09T16:51:16.756Z,101455.22
2023-04-09T16:56:14.098Z,101457.94
2023-04-09T17:01:10.904Z,101465.47
2023-04-09T17:06:07.866Z,101453.47
2023-04-09T17:11:04.919Z,101473.28
2023-04-09T17:16:02.646Z,101476.69
2023-04-09T17:20:59.255Z,101480.31
2023-04-09T17:25:56.293Z,101476.72
2023-04-09T17:30:53.095Z,101491.38
2023-04-09T17:35:50.638Z,101497.69
2023-04-09T17:40:47.415Z,101499.28
2023-04-09T17:45:44.263Z,101517.66
2023-04-09T17:50:41.181Z,101522.47
2023-04-09T17:55:38.547Z,101521.03
2023-04-09T18:00:35.290Z,101527.97
2023-04-09T18:05:33.450Z,101531.50
2023-04-09T18:10:30.194Z,101530.72
2023-04-09T18:15:28.032Z,101538.88
2023-04-09T18:20:27.392Z,101540.84
2023-04-09T18:25:24.054Z,101545.47
2023-04-09T18:30:20.813Z,101541.41
2023-04-09T18:35:21.070Z,101550.00
2023-04-09T18:40:19.694Z,101550.25
2023-04-09T18:45:16.324Z,101549.34
2023-04-09T18:50:14.948Z,101545.03
2023-04-09T18:55:13.061Z,101541.34
2023-04-09T19:00:10.072Z,101553.19
2023-04-09T19:05:07.617Z,101543.13
2023-04-09T19:10:04.634Z,101541.19
2023-04-09T19:15:04.498Z,101543.50
2023-04-09T19:20:11.723Z,101544.03
2023-04-09T19:25:09.360Z,101538.94
2023-04-09T19:30:07.526Z,101541.84
2023-04-09T19:35:04.999Z,101545.13
2023-04-09T19:40:03.872Z,101526.50
2023-04-09T19:45:00.699Z,101545.19
2023-04-09T19:49:57.894Z,101540.69
2023-04-09T19:54:54.941Z,101548.63
2023-04-09T19:59:51.952Z,101539.00
2023-04-09T20:04:48.640Z,101540.97
2023-04-09T20:09:46.405Z,101541.63
2023-04-09T20:14:43.194Z,101549.94
2023-04-09T20:19:40.039Z,101550.63
2023-04-09T20:24:37.936Z,101541.94
2023-04-09T20:29:35.214Z,101552.19
2023-04-09T20:34:32.061Z,101547.84
2023-04-09T20:39:32.141Z,101551.69
2023-04-09T20:44:29.132Z,101542.09
2023-04-09T20:49:27.335Z,101548.72
2023-04-09T20:54:24.305Z,101544.53
2023-04-09T20:59:21.111Z,101545.09
2023-04-09T21:04:18.933Z,101550.56
2023-04-09T21:09:16.369Z,101549.97
2023-04-09T21:14:14.002Z,101546.31
2023-04-09T21:19:10.598Z,101545.63
2023-04-09T21:24:07.328Z,101550.16
2023-04-09T21:29:04.530Z,101551.06
2023-04-09T21:34:01.234Z,101553.50
2023-04-09T21:38:57.986Z,101559.31
2023-04-09T21:43:54.552Z,101554.59
2023-04-09T21:48:52.126Z,101558.44
2023-04-09T21:53:49.194Z,101550.94
2023-04-09T21:58:46.801Z,101558.63
2023-04-09T22:03:43.665Z,101555.44
2023-04-09T22:08:55.695Z,101556.13
2023-04-09T22:13:53.561Z,101552.59
2023-04-09T22:18:50.626Z,101559.69
2023-04-09T22:23:47.936Z,101548.47
2023-04-09T22:28:44.483Z,101554.66
2023-04-09T22:33:41.090Z,101540.00
2023-04-09T22:38:37.722Z,101562.13
2023-04-09T22:43:35.640Z,101551.63
2023-04-09T22:48:35.927Z,101551.03
2023-04-09T22:53:37.493Z,101552.38
2023-04-09T22:58:35.159Z,101540.97
2023-04-09T23:03:32.480Z,101545.22
2023-04-09T23:08:29.281Z,101532.47
2023-04-09T23:13:25.793Z,101532.84
2023-04-09T23:18:22.392Z,101530.44
2023-04-09T23:23:20.338Z,101532.88
2023-04-09T23:28:17.108Z,101525.72
2023-04-09T23:33:13.804Z,101529.16
2023-04-09T23:38:10.552Z,101519.94
2023-04-09T23:43:07.862Z,101513.09
2023-04-09T23:48:05.541Z,101509.75
2023-04-09T23:53:03.199Z,101515.16
2023-04-09T23:57:59.649Z,101516.06
